sensor_id;sensor_type;location;lat;lon;timestamp;P1;durP1;ratioP1;P2;durP2;ratioP2
52434;SDS011;38354;52.892;6.148;2023-01-24T04:01:16;24.10;;;12.27;;
52434;SDS011;38354;52.892;6.148;2023-01-24T04:03:42;24.60;;;12.63;;
52434;SDS011;38354;52.892;6.148;2023-01-24T04:06:07;23.52;;;12.55;;
52434;SDS011;38354;52.892;6.148;2023-01-24T04:08:33;24.92;;;12.98;;
52434;SDS011;38354;52.892;6.148;2023-01-24T04:10:59;23.63;;;12.90;;
52434;SDS011;38354;52.892;6.148;2023-01-24T04:13:24;22.60;;;12.45;;
52434;SDS011;38354;52.892;6.148;2023-01-24T04:15:50;25.35;;;13.45;;
52434;SDS011;38354;52.892;6.148;2023-01-24T04:18:15;25.83;;;13.95;;
52434;SDS011;38354;52.892;6.148;2023-01-24T04:20:41;26.50;;;13.35;;
52434;SDS011;38354;52.892;6.148;2023-01-24T04:23:07;29.88;;;14.68;;
52434;SDS011;38354;52.892;6.148;2023-01-24T04:25:33;27.58;;;14.90;;
52434;SDS011;38354;52.892;6.148;2023-01-24T04:27:59;28.65;;;15.00;;
52434;SDS011;38354;52.892;6.148;2023-01-24T04:30:25;24.80;;;13.30;;
52434;SDS011;38354;52.892;6.148;2023-01-24T04:32:51;25.95;;;13.75;;
52434;SDS011;38354;52.892;6.148;2023-01-24T04:35:27;26.02;;;14.57;;
52434;SDS011;38354;52.892;6.148;2023-01-24T04:37:56;28.25;;;14.43;;
52434;SDS011;38354;52.892;6.148;2023-01-24T04:40:24;29.25;;;15.07;;
52434;SDS011;38354;52.892;6.148;2023-01-24T04:42:49;27.95;;;14.68;;
52434;SDS011;38354;52.892;6.148;2023-01-24T04:45:15;29.40;;;14.82;;
52434;SDS011;38354;52.892;6.148;2023-01-24T04:47:40;27.85;;;13.73;;
52434;SDS011;38354;52.892;6.148;2023-01-24T04:50:06;28.88;;;13.57;;
52434;SDS011;38354;52.892;6.148;2023-01-24T04:52:33;28.73;;;14.10;;
52434;SDS011;38354;52.892;6.148;2023-01-24T04:54:58;28.77;;;14.52;;
52434;SDS011;38354;52.892;6.148;2023-01-24T04:57:24;28.35;;;15.18;;
52434;SDS011;38354;52.892;6.148;2023-01-24T04:59:50;29.67;;;14.98;;
52434;SDS011;38354;52.892;6.148;2023-01-24T05:02:15;30.48;;;15.48;;
52434;SDS011;38354;52.892;6.148;2023-01-24T05:04:42;31.13;;;15.85;;
52434;SDS011;38354;52.892;6.148;2023-01-24T05:07:09;32.22;;;15.80;;
52434;SDS011;38354;52.892;6.148;2023-01-24T05:09:34;29.58;;;14.93;;
52434;SDS011;38354;52.892;6.148;2023-01-24T05:12:00;30.90;;;14.77;;
52434;SDS011;38354;52.892;6.148;2023-01-24T05:14:26;30.00;;;15.38;;
52434;SDS011;38354;52.892;6.148;2023-01-24T05:16:51;28.17;;;15.02;;
52434;SDS011;38354;52.892;6.148;2023-01-24T05:19:17;27.23;;;14.30;;
52434;SDS011;38354;52.892;6.148;2023-01-24T05:21:42;29.45;;;14.45;;
52434;SDS011;38354;52.892;6.148;2023-01-24T05:24:08;30.15;;;14.38;;
52434;SDS011;38354;52.892;6.148;2023-01-24T05:26:34;28.30;;;14.93;;
52434;SDS011;38354;52.892;6.148;2023-01-24T05:28:59;29.08;;;15.02;;
52434;SDS011;38354;52.892;6.148;2023-01-24T05:31:25;27.05;;;13.98;;
52434;SDS011;38354;52.892;6.148;2023-01-24T05:33:51;27.58;;;14.48;;
52434;SDS011;38354;52.892;6.148;2023-01-24T05:36:18;29.27;;;15.30;;
52434;SDS011;38354;52.892;6.148;2023-01-24T05:38:45;25.70;;;13.43;;
52434;SDS011;38354;52.892;6.148;2023-01-24T05:41:12;29.55;;;15.48;;
52434;SDS011;38354;52.892;6.148;2023-01-24T05:43:43;30.38;;;15.35;;
52434;SDS011;38354;52.892;6.148;2023-01-24T05:46:17;29.52;;;14.25;;
52434;SDS011;38354;52.892;6.148;2023-01-24T05:48:44;27.52;;;14.00;;
52434;SDS011;38354;52.892;6.148;2023-01-24T05:51:11;28.77;;;13.38;;
52434;SDS011;38354;52.892;6.148;2023-01-24T05:53:40;26.48;;;12.65;;
52434;SDS011;38354;52.892;6.148;2023-01-24T05:56:09;26.08;;;13.80;;
52434;SDS011;38354;52.892;6.148;2023-01-24T05:58:38;22.20;;;10.98;;
52434;SDS011;38354;52.892;6.148;2023-01-24T06:01:08;22.42;;;11.35;;
52434;SDS011;38354;52.892;6.148;2023-01-24T06:03:38;26.23;;;12.50;;
52434;SDS011;38354;52.892;6.148;2023-01-24T06:06:06;23.17;;;11.93;;
52434;SDS011;38354;52.892;6.148;2023-01-24T06:08:32;22.48;;;11.90;;
52434;SDS011;38354;52.892;6.148;2023-01-24T06:11:03;24.05;;;12.40;;
52434;SDS011;38354;52.892;6.148;2023-01-24T06:13:30;23.23;;;11.77;;
52434;SDS011;38354;52.892;6.148;2023-01-24T06:16:00;21.27;;;11.52;;
52434;SDS011;38354;52.892;6.148;2023-01-24T06:18:26;24.58;;;12.32;;
52434;SDS011;38354;52.892;6.148;2023-01-24T06:20:52;24.77;;;13.40;;
52434;SDS011;38354;52.892;6.148;2023-01-24T06:23:23;29.52;;;13.40;;
52434;SDS011;38354;52.892;6.148;2023-01-24T06:25:50;24.95;;;12.93;;
52434;SDS011;38354;52.892;6.148;2023-01-24T06:28:17;24.80;;;12.98;;
52434;SDS011;38354;52.892;6.148;2023-01-24T06:30:43;25.08;;;13.05;;
52434;SDS011;38354;52.892;6.148;2023-01-24T06:33:25;26.42;;;13.25;;
52434;SDS011;38354;52.892;6.148;2023-01-24T06:36:05;25.90;;;13.07;;
52434;SDS011;38354;52.892;6.148;2023-01-24T06:38:32;25.85;;;12.90;;
52434;SDS011;38354;52.892;6.148;2023-01-24T06:40:59;26.40;;;13.77;;
52434;SDS011;38354;52.892;6.148;2023-01-24T06:43:26;30.25;;;13.73;;
52434;SDS011;38354;52.892;6.148;2023-01-24T06:45:52;25.20;;;12.02;;
52434;SDS011;38354;52.892;6.148;2023-01-24T06:48:18;25.20;;;12.57;;
52434;SDS011;38354;52.892;6.148;2023-01-24T06:50:44;24.17;;;12.10;;
52434;SDS011;38354;52.892;6.148;2023-01-24T06:53:10;22.00;;;11.98;;
52434;SDS011;38354;52.892;6.148;2023-01-24T06:55:36;20.95;;;11.13;;
52434;SDS011;38354;52.892;6.148;2023-01-24T06:58:02;24.58;;;12.02;;
52434;SDS011;38354;52.892;6.148;2023-01-24T07:00:29;24.52;;;11.68;;
52434;SDS011;38354;52.892;6.148;2023-01-24T07:03:01;23.05;;;11.02;;
52434;SDS011;38354;52.892;6.148;2023-01-24T07:05:34;20.48;;;10.35;;
52434;SDS011;38354;52.892;6.148;2023-01-24T07:08:01;21.90;;;11.50;;
52434;SDS011;38354;52.892;6.148;2023-01-24T07:10:28;23.85;;;11.90;;
52434;SDS011;38354;52.892;6.148;2023-01-24T07:12:54;19.73;;;10.25;;
52434;SDS011;38354;52.892;6.148;2023-01-24T07:15:20;18.00;;;9.73;;
52434;SDS011;38354;52.892;6.148;2023-01-24T07:17:45;20.10;;;10.55;;
52434;SDS011;38354;52.892;6.148;2023-01-24T07:20:12;21.17;;;10.60;;
52434;SDS011;38354;52.892;6.148;2023-01-24T07:22:38;19.67;;;10.60;;
52434;SDS011;38354;52.892;6.148;2023-01-24T07:25:15;17.95;;;9.70;;
52434;SDS011;38354;52.892;6.148;2023-01-24T07:27:44;20.30;;;9.90;;
52434;SDS011;38354;52.892;6.148;2023-01-24T07:30:10;20.40;;;10.55;;
52434;SDS011;38354;52.892;6.148;2023-01-24T07:32:37;20.83;;;11.10;;
52434;SDS011;38354;52.892;6.148;2023-01-24T07:35:03;19.90;;;9.63;;
52434;SDS011;38354;52.892;6.148;2023-01-24T07:37:30;20.33;;;10.50;;
52434;SDS011;38354;52.892;6.148;2023-01-24T07:39:56;23.23;;;11.20;;
52434;SDS011;38354;52.892;6.148;2023-01-24T07:42:22;22.27;;;11.27;;
52434;SDS011;38354;52.892;6.148;2023-01-24T07:44:48;17.60;;;10.07;;
52434;SDS011;38354;52.892;6.148;2023-01-24T07:47:13;19.40;;;10.07;;
52434;SDS011;38354;52.892;6.148;2023-01-24T07:49:39;20.33;;;10.10;;
52434;SDS011;38354;52.892;6.148;2023-01-24T07:52:05;21.35;;;10.43;;
52434;SDS011;38354;52.892;6.148;2023-01-24T07:54:31;19.52;;;9.77;;
52434;SDS011;38354;52.892;6.148;2023-01-24T07:56:56;19.70;;;10.50;;
52434;SDS011;38354;52.892;6.148;2023-01-24T07:59:22;20.75;;;10.05;;
52434;SDS011;38354;52.892;6.148;2023-01-24T08:01:48;19.75;;;10.82;;
52434;SDS011;38354;52.892;6.148;2023-01-24T08:04:13;25.20;;;11.77;;
52434;SDS011;38354;52.892;6.148;2023-01-24T08:06:39;20.73;;;10.05;;
52434;SDS011;38354;52.892;6.148;2023-01-24T08:09:27;19.88;;;10.63;;
52434;SDS011;38354;52.892;6.148;2023-01-24T08:11:54;22.38;;;10.73;;
52434;SDS011;38354;52.892;6.148;2023-01-24T08:14:20;22.60;;;10.90;;
52434;SDS011;38354;52.892;6.148;2023-01-24T08:16:47;20.38;;;10.25;;
52434;SDS011;38354;52.892;6.148;2023-01-24T08:19:15;21.70;;;10.65;;
52434;SDS011;38354;52.892;6.148;2023-01-24T08:21:41;22.48;;;10.60;;
52434;SDS011;38354;52.892;6.148;2023-01-24T08:24:06;22.50;;;11.02;;
52434;SDS011;38354;52.892;6.148;2023-01-24T08:26:32;18.95;;;10.43;;
52434;SDS011;38354;52.892;6.148;2023-01-24T08:28:59;20.63;;;10.88;;
52434;SDS011;38354;52.892;6.148;2023-01-24T08:31:24;21.65;;;11.85;;
52434;SDS011;38354;52.892;6.148;2023-01-24T08:33:50;24.13;;;11.05;;
52434;SDS011;38354;52.892;6.148;2023-01-24T08:36:17;19.92;;;10.95;;
52434;SDS011;38354;52.892;6.148;2023-01-24T08:38:44;24.25;;;10.40;;
52434;SDS011;38354;52.892;6.148;2023-01-24T08:41:10;23.90;;;11.43;;
52434;SDS011;38354;52.892;6.148;2023-01-24T08:43:36;23.33;;;12.15;;
52434;SDS011;38354;52.892;6.148;2023-01-24T08:46:02;23.27;;;10.90;;
52434;SDS011;38354;52.892;6.148;2023-01-24T08:48:29;21.38;;;11.93;;
52434;SDS011;38354;52.892;6.148;2023-01-24T08:50:55;21.10;;;10.68;;
52434;SDS011;38354;52.892;6.148;2023-01-24T08:53:20;22.85;;;11.80;;
52434;SDS011;38354;52.892;6.148;2023-01-24T08:55:49;20.77;;;10.90;;
52434;SDS011;38354;52.892;6.148;2023-01-24T08:58:15;21.67;;;11.38;;
52434;SDS011;38354;52.892;6.148;2023-01-24T09:00:41;20.52;;;10.77;;
52434;SDS011;38354;52.892;6.148;2023-01-24T09:03:08;21.33;;;10.45;;
52434;SDS011;38354;52.892;6.148;2023-01-24T09:05:36;23.63;;;11.73;;
52434;SDS011;38354;52.892;6.148;2023-01-24T09:08:03;23.15;;;10.35;;
52434;SDS011;38354;52.892;6.148;2023-01-24T09:10:29;24.27;;;12.10;;
52434;SDS011;38354;52.892;6.148;2023-01-24T09:12:55;23.27;;;12.00;;
52434;SDS011;38354;52.892;6.148;2023-01-24T09:15:21;20.45;;;10.70;;
52434;SDS011;38354;52.892;6.148;2023-01-24T09:17:46;25.00;;;11.90;;
52434;SDS011;38354;52.892;6.148;2023-01-24T09:20:12;24.52;;;12.13;;
52434;SDS011;38354;52.892;6.148;2023-01-24T09:22:38;21.42;;;11.40;;
52434;SDS011;38354;52.892;6.148;2023-01-24T09:25:04;24.10;;;11.82;;
52434;SDS011;38354;52.892;6.148;2023-01-24T09:27:32;23.80;;;11.85;;
52434;SDS011;38354;52.892;6.148;2023-01-24T09:29:58;24.10;;;11.77;;
52434;SDS011;38354;52.892;6.148;2023-01-24T09:32:24;23.45;;;12.07;;
52434;SDS011;38354;52.892;6.148;2023-01-24T09:34:49;24.00;;;12.52;;
52434;SDS011;38354;52.892;6.148;2023-01-24T09:37:18;21.33;;;11.32;;
52434;SDS011;38354;52.892;6.148;2023-01-24T09:39:45;24.88;;;12.05;;
52434;SDS011;38354;52.892;6.148;2023-01-24T09:42:23;20.98;;;11.25;;
52434;SDS011;38354;52.892;6.148;2023-01-24T09:47:50;21.00;;;11.50;;
52434;SDS011;38354;52.892;6.148;2023-01-24T09:50:26;24.02;;;11.90;;
52434;SDS011;38354;52.892;6.148;2023-01-24T09:52:59;22.25;;;11.68;;
52434;SDS011;38354;52.892;6.148;2023-01-24T09:55:29;20.70;;;11.85;;
52434;SDS011;38354;52.892;6.148;2023-01-24T09:58:03;21.92;;;11.45;;
52434;SDS011;38354;52.892;6.148;2023-01-24T10:00:35;20.40;;;10.57;;
52434;SDS011;38354;52.892;6.148;2023-01-24T10:03:02;21.38;;;11.30;;
52434;SDS011;38354;52.892;6.148;2023-01-24T10:05:38;19.67;;;10.87;;
52434;SDS011;38354;52.892;6.148;2023-01-24T10:19:18;20.88;;;11.25;;
52434;SDS011;38354;52.892;6.148;2023-01-24T10:25:03;22.70;;;11.60;;
52434;SDS011;38354;52.892;6.148;2023-01-24T10:27:46;19.77;;;11.02;;
52434;SDS011;38354;52.892;6.148;2023-01-24T10:33:16;22.92;;;11.48;;
52434;SDS011;38354;52.892;6.148;2023-01-24T10:35:47;21.13;;;11.55;;
52434;SDS011;38354;52.892;6.148;2023-01-24T10:38:21;20.40;;;11.00;;
52434;SDS011;38354;52.892;6.148;2023-01-24T10:40:51;23.45;;;11.73;;
52434;SDS011;38354;52.892;6.148;2023-01-24T10:43:18;18.67;;;10.50;;
52434;SDS011;38354;52.892;6.148;2023-01-24T10:46:01;21.52;;;11.50;;
52434;SDS011;38354;52.892;6.148;2023-01-24T10:48:37;20.90;;;11.30;;
52434;SDS011;38354;52.892;6.148;2023-01-24T10:51:17;19.33;;;11.20;;
52434;SDS011;38354;52.892;6.148;2023-01-24T10:53:45;21.52;;;11.75;;
52434;SDS011;38354;52.892;6.148;2023-01-24T10:56:12;21.15;;;11.65;;
52434;SDS011;38354;52.892;6.148;2023-01-24T10:58:43;18.65;;;10.90;;
52434;SDS011;38354;52.892;6.148;2023-01-24T11:01:33;20.00;;;11.23;;
52434;SDS011;38354;52.892;6.148;2023-01-24T11:04:13;21.48;;;10.77;;
52434;SDS011;38354;52.892;6.148;2023-01-24T11:06:45;20.08;;;11.05;;
52434;SDS011;38354;52.892;6.148;2023-01-24T11:09:16;19.55;;;11.15;;
52434;SDS011;38354;52.892;6.148;2023-01-24T11:11:52;19.88;;;11.00;;
52434;SDS011;38354;52.892;6.148;2023-01-24T11:14:20;20.45;;;11.60;;
52434;SDS011;38354;52.892;6.148;2023-01-24T11:16:48;20.92;;;11.10;;
52434;SDS011;38354;52.892;6.148;2023-01-24T11:22:01;22.77;;;11.77;;
52434;SDS011;38354;52.892;6.148;2023-01-24T11:24:45;19.60;;;11.10;;
52434;SDS011;38354;52.892;6.148;2023-01-24T11:27:17;24.40;;;10.65;;
52434;SDS011;38354;52.892;6.148;2023-01-24T11:29:45;20.52;;;11.15;;
52434;SDS011;38354;52.892;6.148;2023-01-24T11:35:31;22.08;;;11.20;;
52434;SDS011;38354;52.892;6.148;2023-01-24T11:38:08;21.40;;;11.80;;
52434;SDS011;38354;52.892;6.148;2023-01-24T11:40:38;20.63;;;11.30;;
52434;SDS011;38354;52.892;6.148;2023-01-24T11:59:18;21.65;;;11.80;;
52434;SDS011;38354;52.892;6.148;2023-01-24T12:12:59;18.65;;;11.05;;
52434;SDS011;38354;52.892;6.148;2023-01-24T12:19:01;20.20;;;10.88;;
52434;SDS011;38354;52.892;6.148;2023-01-24T12:21:48;24.75;;;12.20;;
52434;SDS011;38354;52.892;6.148;2023-01-24T12:24:19;21.00;;;12.07;;
52434;SDS011;38354;52.892;6.148;2023-01-24T12:26:53;21.55;;;12.27;;
52434;SDS011;38354;52.892;6.148;2023-01-24T12:32:42;21.10;;;11.80;;
52434;SDS011;38354;52.892;6.148;2023-01-24T12:37:51;23.42;;;11.65;;
52434;SDS011;38354;52.892;6.148;2023-01-24T12:40:45;22.40;;;12.25;;
52434;SDS011;38354;52.892;6.148;2023-01-24T12:46:43;21.85;;;11.57;;
52434;SDS011;38354;52.892;6.148;2023-01-24T12:49:02;20.08;;;10.82;;
52434;SDS011;38354;52.892;6.148;2023-01-24T12:51:39;21.30;;;12.05;;
52434;SDS011;38354;52.892;6.148;2023-01-24T12:54:25;22.15;;;11.73;;
52434;SDS011;38354;52.892;6.148;2023-01-24T12:59:37;21.47;;;11.07;;
52434;SDS011;38354;52.892;6.148;2023-01-24T13:13:29;20.60;;;11.27;;
52434;SDS011;38354;52.892;6.148;2023-01-24T13:21:40;21.83;;;11.95;;
52434;SDS011;38354;52.892;6.148;2023-01-24T13:30:09;22.45;;;12.23;;
52434;SDS011;38354;52.892;6.148;2023-01-24T13:32:42;22.08;;;12.18;;
52434;SDS011;38354;52.892;6.148;2023-01-24T13:35:15;23.67;;;12.75;;
52434;SDS011;38354;52.892;6.148;2023-01-24T13:37:53;22.92;;;12.95;;
52434;SDS011;38354;52.892;6.148;2023-01-24T13:40:31;20.90;;;12.43;;
52434;SDS011;38354;52.892;6.148;2023-01-24T13:43:00;19.88;;;12.00;;
52434;SDS011;38354;52.892;6.148;2023-01-24T13:48:02;23.20;;;12.40;;
52434;SDS011;38354;52.892;6.148;2023-01-24T13:56:26;23.48;;;13.38;;
52434;SDS011;38354;52.892;6.148;2023-01-24T13:58:52;23.15;;;12.32;;
52434;SDS011;38354;52.892;6.148;2023-01-24T14:01:19;22.88;;;12.48;;
52434;SDS011;38354;52.892;6.148;2023-01-24T14:03:54;23.70;;;14.02;;
52434;SDS011;38354;52.892;6.148;2023-01-24T14:06:25;24.23;;;13.45;;
52434;SDS011;38354;52.892;6.148;2023-01-24T14:09:03;22.88;;;12.18;;
52434;SDS011;38354;52.892;6.148;2023-01-24T14:11:38;23.23;;;13.13;;
52434;SDS011;38354;52.892;6.148;2023-01-24T14:14:33;23.63;;;12.85;;
52434;SDS011;38354;52.892;6.148;2023-01-24T14:17:04;24.02;;;12.55;;
52434;SDS011;38354;52.892;6.148;2023-01-24T14:19:50;22.48;;;11.57;;
52434;SDS011;38354;52.892;6.148;2023-01-24T14:22:19;22.70;;;12.27;;
52434;SDS011;38354;52.892;6.148;2023-01-24T14:27:33;25.50;;;12.95;;
52434;SDS011;38354;52.892;6.148;2023-01-24T14:32:49;24.55;;;12.75;;
52434;SDS011;38354;52.892;6.148;2023-01-24T14:37:45;23.13;;;12.77;;
52434;SDS011;38354;52.892;6.148;2023-01-24T14:42:57;24.73;;;13.13;;
52434;SDS011;38354;52.892;6.148;2023-01-24T14:45:26;22.80;;;12.65;;
52434;SDS011;38354;52.892;6.148;2023-01-24T14:47:53;24.17;;;13.18;;
52434;SDS011;38354;52.892;6.148;2023-01-24T14:50:22;25.27;;;13.63;;
52434;SDS011;38354;52.892;6.148;2023-01-24T14:52:50;23.08;;;12.27;;
52434;SDS011;38354;52.892;6.148;2023-01-24T14:57:50;20.98;;;11.80;;
52434;SDS011;38354;52.892;6.148;2023-01-24T15:00:17;23.45;;;12.65;;
52434;SDS011;38354;52.892;6.148;2023-01-24T15:05:26;25.42;;;12.52;;
52434;SDS011;38354;52.892;6.148;2023-01-24T15:07:52;27.17;;;13.25;;
52434;SDS011;38354;52.892;6.148;2023-01-24T15:10:26;23.40;;;13.15;;
52434;SDS011;38354;52.892;6.148;2023-01-24T15:12:58;24.02;;;12.77;;
52434;SDS011;38354;52.892;6.148;2023-01-24T15:15:26;24.95;;;13.43;;
52434;SDS011;38354;52.892;6.148;2023-01-24T15:17:55;23.65;;;13.52;;
52434;SDS011;38354;52.892;6.148;2023-01-24T15:20:26;23.67;;;13.18;;
52434;SDS011;38354;52.892;6.148;2023-01-24T15:22:53;22.88;;;12.98;;
52434;SDS011;38354;52.892;6.148;2023-01-24T15:25:28;25.25;;;13.35;;
52434;SDS011;38354;52.892;6.148;2023-01-24T15:27:56;24.92;;;14.40;;
52434;SDS011;38354;52.892;6.148;2023-01-24T15:30:32;23.20;;;13.15;;
52434;SDS011;38354;52.892;6.148;2023-01-24T15:40:49;24.90;;;13.60;;
52434;SDS011;38354;52.892;6.148;2023-01-24T15:46:04;27.23;;;14.05;;
52434;SDS011;38354;52.892;6.148;2023-01-24T15:49:00;29.67;;;15.02;;
52434;SDS011;38354;52.892;6.148;2023-01-24T15:51:33;26.05;;;14.20;;
52434;SDS011;38354;52.892;6.148;2023-01-24T15:54:00;26.20;;;14.45;;
52434;SDS011;38354;52.892;6.148;2023-01-24T15:56:26;27.70;;;14.35;;
52434;SDS011;38354;52.892;6.148;2023-01-24T15:58:53;26.92;;;14.55;;
52434;SDS011;38354;52.892;6.148;2023-01-24T16:01:19;26.42;;;14.10;;
52434;SDS011;38354;52.892;6.148;2023-01-24T16:03:45;29.10;;;14.07;;
52434;SDS011;38354;52.892;6.148;2023-01-24T16:06:11;29.50;;;15.25;;
52434;SDS011;38354;52.892;6.148;2023-01-24T16:08:36;30.30;;;14.93;;
52434;SDS011;38354;52.892;6.148;2023-01-24T16:11:02;25.00;;;13.82;;
52434;SDS011;38354;52.892;6.148;2023-01-24T16:13:38;27.13;;;14.93;;
52434;SDS011;38354;52.892;6.148;2023-01-24T16:16:07;27.33;;;14.75;;
52434;SDS011;38354;52.892;6.148;2023-01-24T16:18:37;28.50;;;15.88;;
52434;SDS011;38354;52.892;6.148;2023-01-24T16:21:03;27.15;;;15.20;;
52434;SDS011;38354;52.892;6.148;2023-01-24T16:23:28;29.73;;;16.10;;
52434;SDS011;38354;52.892;6.148;2023-01-24T16:25:55;25.63;;;14.90;;
52434;SDS011;38354;52.892;6.148;2023-01-24T16:28:22;27.10;;;15.23;;
52434;SDS011;38354;52.892;6.148;2023-01-24T16:30:50;26.67;;;14.52;;
52434;SDS011;38354;52.892;6.148;2023-01-24T16:33:17;26.58;;;14.38;;
52434;SDS011;38354;52.892;6.148;2023-01-24T16:35:45;28.38;;;15.90;;
52434;SDS011;38354;52.892;6.148;2023-01-24T16:38:12;27.90;;;15.63;;
52434;SDS011;38354;52.892;6.148;2023-01-24T16:40:38;28.00;;;15.02;;
52434;SDS011;38354;52.892;6.148;2023-01-24T16:43:05;27.30;;;15.02;;
52434;SDS011;38354;52.892;6.148;2023-01-24T16:45:32;30.52;;;15.40;;
52434;SDS011;38354;52.892;6.148;2023-01-24T16:47:59;27.75;;;15.63;;
52434;SDS011;38354;52.892;6.148;2023-01-24T16:50:25;26.30;;;15.38;;
52434;SDS011;38354;52.892;6.148;2023-01-24T16:52:54;28.00;;;15.60;;
52434;SDS011;38354;52.892;6.148;2023-01-24T16:55:20;30.02;;;14.93;;
52434;SDS011;38354;52.892;6.148;2023-01-24T16:57:45;28.45;;;15.35;;
52434;SDS011;38354;52.892;6.148;2023-01-24T17:00:11;29.75;;;16.17;;
52434;SDS011;38354;52.892;6.148;2023-01-24T17:02:41;31.40;;;17.15;;
52434;SDS011;38354;52.892;6.148;2023-01-24T17:05:08;29.13;;;15.85;;
52434;SDS011;38354;52.892;6.148;2023-01-24T17:07:35;30.63;;;15.98;;
52434;SDS011;38354;52.892;6.148;2023-01-24T17:10:00;34.08;;;16.73;;
52434;SDS011;38354;52.892;6.148;2023-01-24T17:12:29;31.60;;;16.85;;
52434;SDS011;38354;52.892;6.148;2023-01-24T17:14:58;31.38;;;17.00;;
52434;SDS011;38354;52.892;6.148;2023-01-24T17:17:23;32.50;;;17.30;;
52434;SDS011;38354;52.892;6.148;2023-01-24T17:19:50;31.95;;;17.10;;
52434;SDS011;38354;52.892;6.148;2023-01-24T17:22:16;31.35;;;17.13;;
52434;SDS011;38354;52.892;6.148;2023-01-24T17:24:42;28.75;;;16.08;;
52434;SDS011;38354;52.892;6.148;2023-01-24T17:27:08;29.55;;;16.83;;
52434;SDS011;38354;52.892;6.148;2023-01-24T17:29:33;27.40;;;15.43;;
52434;SDS011;38354;52.892;6.148;2023-01-24T17:31:59;32.25;;;16.45;;
52434;SDS011;38354;52.892;6.148;2023-01-24T17:34:25;30.15;;;17.25;;
52434;SDS011;38354;52.892;6.148;2023-01-24T17:36:51;28.98;;;16.85;;
52434;SDS011;38354;52.892;6.148;2023-01-24T17:39:16;27.25;;;15.80;;
52434;SDS011;38354;52.892;6.148;2023-01-24T17:41:42;29.25;;;16.60;;
52434;SDS011;38354;52.892;6.148;2023-01-24T17:44:08;26.85;;;15.40;;
52434;SDS011;38354;52.892;6.148;2023-01-24T17:46:34;29.50;;;16.23;;
52434;SDS011;38354;52.892;6.148;2023-01-24T17:49:00;26.50;;;15.45;;
52434;SDS011;38354;52.892;6.148;2023-01-24T17:51:26;29.30;;;16.50;;
52434;SDS011;38354;52.892;6.148;2023-01-24T17:53:51;27.08;;;15.45;;
52434;SDS011;38354;52.892;6.148;2023-01-24T17:56:17;27.00;;;15.68;;
52434;SDS011;38354;52.892;6.148;2023-01-24T17:58:43;30.20;;;15.95;;
52434;SDS011;38354;52.892;6.148;2023-01-24T18:01:09;29.25;;;17.17;;
52434;SDS011;38354;52.892;6.148;2023-01-24T18:03:36;29.35;;;15.13;;
52434;SDS011;38354;52.892;6.148;2023-01-24T18:06:02;26.58;;;15.15;;
52434;SDS011;38354;52.892;6.148;2023-01-24T18:08:29;29.88;;;16.55;;
52434;SDS011;38354;52.892;6.148;2023-01-24T18:10:55;27.20;;;15.13;;
52434;SDS011;38354;52.892;6.148;2023-01-24T18:13:27;28.90;;;16.27;;
52434;SDS011;38354;52.892;6.148;2023-01-24T18:18:36;29.80;;;16.20;;
52434;SDS011;38354;52.892;6.148;2023-01-24T18:21:10;29.33;;;15.88;;
52434;SDS011;38354;52.892;6.148;2023-01-24T18:23:41;32.20;;;16.00;;
52434;SDS011;38354;52.892;6.148;2023-01-24T18:26:08;28.40;;;15.55;;
52434;SDS011;38354;52.892;6.148;2023-01-24T18:28:34;29.25;;;16.70;;
52434;SDS011;38354;52.892;6.148;2023-01-24T18:31:04;30.33;;;16.67;;
52434;SDS011;38354;52.892;6.148;2023-01-24T18:33:34;29.58;;;16.15;;
52434;SDS011;38354;52.892;6.148;2023-01-24T18:36:05;29.35;;;16.73;;
52434;SDS011;38354;52.892;6.148;2023-01-24T18:38:39;28.00;;;15.48;;
52434;SDS011;38354;52.892;6.148;2023-01-24T18:41:04;28.50;;;16.23;;
52434;SDS011;38354;52.892;6.148;2023-01-24T18:43:30;28.67;;;15.88;;
52434;SDS011;38354;52.892;6.148;2023-01-24T18:46:00;31.20;;;16.30;;
52434;SDS011;38354;52.892;6.148;2023-01-24T18:48:34;31.67;;;17.13;;
52434;SDS011;38354;52.892;6.148;2023-01-24T18:51:04;28.35;;;16.35;;
52434;SDS011;38354;52.892;6.148;2023-01-24T18:53:34;29.70;;;16.42;;
52434;SDS011;38354;52.892;6.148;2023-01-24T18:56:00;26.25;;;14.18;;
52434;SDS011;38354;52.892;6.148;2023-01-24T18:58:29;27.70;;;15.38;;
52434;SDS011;38354;52.892;6.148;2023-01-24T19:00:56;27.10;;;15.05;;
52434;SDS011;38354;52.892;6.148;2023-01-24T19:03:22;27.98;;;15.82;;
52434;SDS011;38354;52.892;6.148;2023-01-24T19:05:48;28.73;;;15.57;;
52434;SDS011;38354;52.892;6.148;2023-01-24T19:08:13;26.73;;;16.13;;
52434;SDS011;38354;52.892;6.148;2023-01-24T19:10:39;29.65;;;16.17;;
52434;SDS011;38354;52.892;6.148;2023-01-24T19:13:04;29.08;;;15.95;;
52434;SDS011;38354;52.892;6.148;2023-01-24T19:15:30;30.58;;;16.30;;
52434;SDS011;38354;52.892;6.148;2023-01-24T19:17:55;29.05;;;16.00;;
52434;SDS011;38354;52.892;6.148;2023-01-24T19:20:21;31.85;;;16.60;;
52434;SDS011;38354;52.892;6.148;2023-01-24T19:22:47;29.75;;;16.58;;
52434;SDS011;38354;52.892;6.148;2023-01-24T19:25:12;29.67;;;17.15;;
52434;SDS011;38354;52.892;6.148;2023-01-24T19:27:38;33.20;;;18.15;;
52434;SDS011;38354;52.892;6.148;2023-01-24T19:30:05;29.95;;;16.88;;
52434;SDS011;38354;52.892;6.148;2023-01-24T19:32:32;29.63;;;16.45;;
52434;SDS011;38354;52.892;6.148;2023-01-24T19:34:58;33.90;;;18.13;;
52434;SDS011;38354;52.892;6.148;2023-01-24T19:37:24;30.10;;;17.40;;
52434;SDS011;38354;52.892;6.148;2023-01-24T19:39:50;31.40;;;17.10;;
52434;SDS011;38354;52.892;6.148;2023-01-24T19:42:15;32.10;;;17.40;;
52434;SDS011;38354;52.892;6.148;2023-01-24T19:44:41;33.58;;;17.58;;
52434;SDS011;38354;52.892;6.148;2023-01-24T19:47:06;34.08;;;18.20;;
52434;SDS011;38354;52.892;6.148;2023-01-24T19:49:32;35.03;;;18.55;;
52434;SDS011;38354;52.892;6.148;2023-01-24T19:51:57;33.67;;;17.83;;
52434;SDS011;38354;52.892;6.148;2023-01-24T19:54:23;38.03;;;18.25;;
52434;SDS011;38354;52.892;6.148;2023-01-24T19:56:49;36.88;;;19.75;;
52434;SDS011;38354;52.892;6.148;2023-01-24T19:59:18;37.75;;;20.02;;
52434;SDS011;38354;52.892;6.148;2023-01-24T20:01:44;34.60;;;18.95;;
52434;SDS011;38354;52.892;6.148;2023-01-24T20:04:10;34.10;;;19.23;;
52434;SDS011;38354;52.892;6.148;2023-01-24T20:06:35;33.95;;;18.95;;
52434;SDS011;38354;52.892;6.148;2023-01-24T20:09:01;36.90;;;19.25;;
52434;SDS011;38354;52.892;6.148;2023-01-24T20:11:27;37.80;;;19.20;;
52434;SDS011;38354;52.892;6.148;2023-01-24T20:13:56;38.58;;;20.30;;
52434;SDS011;38354;52.892;6.148;2023-01-24T20:16:23;37.30;;;19.30;;
52434;SDS011;38354;52.892;6.148;2023-01-24T20:18:51;38.92;;;20.35;;
52434;SDS011;38354;52.892;6.148;2023-01-24T20:21:19;40.25;;;19.75;;
52434;SDS011;38354;52.892;6.148;2023-01-24T20:23:45;42.70;;;20.92;;
52434;SDS011;38354;52.892;6.148;2023-01-24T20:26:11;40.40;;;21.42;;
52434;SDS011;38354;52.892;6.148;2023-01-24T20:28:39;36.95;;;19.58;;
52434;SDS011;38354;52.892;6.148;2023-01-24T20:31:06;40.40;;;20.35;;
52434;SDS011;38354;52.892;6.148;2023-01-24T20:33:33;42.38;;;21.83;;
52434;SDS011;38354;52.892;6.148;2023-01-24T20:38:32;40.45;;;20.88;;
52434;SDS011;38354;52.892;6.148;2023-01-24T20:40:59;44.60;;;24.02;;